sensor_id;sensor_type;location;lat;lon;timestamp;temperature;humidity
76120;DHT22;64852;48.092;-1.640;2024-02-21T00:01:50;11.60;99.90
76120;DHT22;64852;48.092;-1.640;2024-02-21T00:04:15;11.50;99.90
76120;DHT22;64852;48.092;-1.640;2024-02-21T00:06:41;11.40;99.90
76120;DHT22;64852;48.092;-1.640;2024-02-21T00:09:06;11.60;99.90
76120;DHT22;64852;48.092;-1.640;2024-02-21T00:11:32;11.40;99.90
76120;DHT22;64852;48.092;-1.640;2024-02-21T00:13:58;11.30;99.90
76120;DHT22;64852;48.092;-1.640;2024-02-21T00:16:23;11.30;99.90
76120;DHT22;64852;48.092;-1.640;2024-02-21T00:18:49;11.20;99.90
76120;DHT22;64852;48.092;-1.640;2024-02-21T00:21:14;11.30;99.90
76120;DHT22;64852;48.092;-1.640;2024-02-21T00:23:43;11.30;99.90
76120;DHT22;64852;48.092;-1.640;2024-02-21T00:26:09;11.30;99.90
76120;DHT22;64852;48.092;-1.640;2024-02-21T00:28:34;11.20;99.90
76120;DHT22;64852;48.092;-1.640;2024-02-21T00:31:00;11.20;99.90
76120;DHT22;64852;48.092;-1.640;2024-02-21T00:33:25;11.30;99.90
76120;DHT22;64852;48.092;-1.640;2024-02-21T00:35:51;11.20;99.90
76120;DHT22;64852;48.092;-1.640;2024-02-21T00:38:16;11.20;99.90
76120;DHT22;64852;48.092;-1.640;2024-02-21T00:40:42;11.90;99.90
76120;DHT22;64852;48.092;-1.640;2024-02-21T00:43:07;11.60;99.90
76120;DHT22;64852;48.092;-1.640;2024-02-21T00:45:33;11.60;99.90
76120;DHT22;64852;48.092;-1.640;2024-02-21T00:47:58;11.50;99.90
76120;DHT22;64852;48.092;-1.640;2024-02-21T00:50:24;11.10;99.90
76120;DHT22;64852;48.092;-1.640;2024-02-21T00:52:49;11.10;99.90
76120;DHT22;64852;48.092;-1.640;2024-02-21T00:55:15;11.00;99.90
76120;DHT22;64852;48.092;-1.640;2024-02-21T00:57:40;11.00;99.90
76120;DHT22;64852;48.092;-1.640;2024-02-21T01:00:06;11.00;99.90
76120;DHT22;64852;48.092;-1.640;2024-02-21T01:02:33;10.90;99.90
76120;DHT22;64852;48.092;-1.640;2024-02-21T01:04:58;10.90;99.90
76120;DHT22;64852;48.092;-1.640;2024-02-21T01:07:24;10.90;99.90
76120;DHT22;64852;48.092;-1.640;2024-02-21T01:09:50;10.90;99.90
76120;DHT22;64852;48.092;-1.640;2024-02-21T01:12:16;10.90;99.90
76120;DHT22;64852;48.092;-1.640;2024-02-21T01:14:42;10.90;99.90
76120;DHT22;64852;48.092;-1.640;2024-02-21T01:17:07;11.00;99.90
76120;DHT22;64852;48.092;-1.640;2024-02-21T01:19:33;11.00;99.90
76120;DHT22;64852;48.092;-1.640;2024-02-21T01:21:58;11.50;99.90
76120;DHT22;64852;48.092;-1.640;2024-02-21T01:24:24;11.00;99.90
76120;DHT22;64852;48.092;-1.640;2024-02-21T01:26:49;10.90;99.90
76120;DHT22;64852;48.092;-1.640;2024-02-21T01:29:15;11.00;99.90
76120;DHT22;64852;48.092;-1.640;2024-02-21T01:31:40;11.90;99.90
76120;DHT22;64852;48.092;-1.640;2024-02-21T01:34:06;11.00;99.90
76120;DHT22;64852;48.092;-1.640;2024-02-21T01:36:31;11.00;99.90
76120;DHT22;64852;48.092;-1.640;2024-02-21T01:38:57;11.40;99.90
76120;DHT22;64852;48.092;-1.640;2024-02-21T01:41:22;10.90;99.90
76120;DHT22;64852;48.092;-1.640;2024-02-21T01:43:48;11.00;99.90
76120;DHT22;64852;48.092;-1.640;2024-02-21T01:46:13;11.90;99.90
76120;DHT22;64852;48.092;-1.640;2024-02-21T01:48:39;10.90;99.90
76120;DHT22;64852;48.092;-1.640;2024-02-21T01:51:04;10.90;99.90
76120;DHT22;64852;48.092;-1.640;2024-02-21T01:53:30;10.80;99.90
76120;DHT22;64852;48.092;-1.640;2024-02-21T01:55:58;10.80;99.90
76120;DHT22;64852;48.092;-1.640;2024-02-21T01:58:23;11.00;99.90
76120;DHT22;64852;48.092;-1.640;2024-02-21T02:00:49;10.90;99.90
76120;DHT22;64852;48.092;-1.640;2024-02-21T02:03:15;10.90;99.90
76120;DHT22;64852;48.092;-1.640;2024-02-21T02:05:47;10.90;99.90
76120;DHT22;64852;48.092;-1.640;2024-02-21T02:08:17;10.80;99.90
76120;DHT22;64852;48.092;-1.640;2024-02-21T02:10:43;10.90;99.90
76120;DHT22;64852;48.092;-1.640;2024-02-21T02:13:08;10.90;99.90
76120;DHT22;64852;48.092;-1.640;2024-02-21T02:18:05;10.80;99.90
76120;DHT22;64852;48.092;-1.640;2024-02-21T02:20:30;10.80;99.90
76120;DHT22;64852;48.092;-1.640;2024-02-21T02:22:56;11.00;99.90
76120;DHT22;64852;48.092;-1.640;2024-02-21T02:25:22;11.50;99.90
76120;DHT22;64852;48.092;-1.640;2024-02-21T02:27:48;10.80;99.90
76120;DHT22;64852;48.092;-1.640;2024-02-21T02:30:13;10.80;99.90
76120;DHT22;64852;48.092;-1.640;2024-02-21T02:32:39;10.70;99.90
76120;DHT22;64852;48.092;-1.640;2024-02-21T02:35:04;10.80;99.90
76120;DHT22;64852;48.092;-1.640;2024-02-21T02:37:30;10.80;99.90
76120;DHT22;64852;48.092;-1.640;2024-02-21T02:39:55;10.70;99.90
76120;DHT22;64852;48.092;-1.640;2024-02-21T02:42:21;10.80;99.90
76120;DHT22;64852;48.092;-1.640;2024-02-21T02:44:46;10.70;99.90
76120;DHT22;64852;48.092;-1.640;2024-02-21T02:47:12;10.70;99.90
76120;DHT22;64852;48.092;-1.640;2024-02-21T02:49:37;10.80;99.90
76120;DHT22;64852;48.092;-1.640;2024-02-21T02:52:03;10.70;99.90
76120;DHT22;64852;48.092;-1.640;2024-02-21T02:54:28;10.70;99.90
76120;DHT22;64852;48.092;-1.640;2024-02-21T02:56:54;10.70;99.90
76120;DHT22;64852;48.092;-1.640;2024-02-21T02:59:19;10.70;99.90
76120;DHT22;64852;48.092;-1.640;2024-02-21T03:01:45;11.30;99.90
76120;DHT22;64852;48.092;-1.640;2024-02-21T03:04:10;11.70;99.90
76120;DHT22;64852;48.092;-1.640;2024-02-21T03:06:36;10.70;99.90
76120;DHT22;64852;48.092;-1.640;2024-02-21T03:09:01;10.70;99.90
76120;DHT22;64852;48.092;-1.640;2024-02-21T03:11:27;10.70;99.90
76120;DHT22;64852;48.092;-1.640;2024-02-21T03:13:54;10.70;99.90
76120;DHT22;64852;48.092;-1.640;2024-02-21T03:16:21;11.60;99.90
76120;DHT22;64852;48.092;-1.640;2024-02-21T03:18:46;10.60;99.90
76120;DHT22;64852;48.092;-1.640;2024-02-21T03:21:12;10.40;99.90
76120;DHT22;64852;48.092;-1.640;2024-02-21T03:23:37;10.50;99.90
76120;DHT22;64852;48.092;-1.640;2024-02-21T03:26:03;10.70;99.90
76120;DHT22;64852;48.092;-1.640;2024-02-21T03:28:28;10.60;99.90
76120;DHT22;64852;48.092;-1.640;2024-02-21T03:30:54;10.60;99.90
76120;DHT22;64852;48.092;-1.640;2024-02-21T03:33:19;11.70;99.90
76120;DHT22;64852;48.092;-1.640;2024-02-21T03:35:46;10.80;99.90
76120;DHT22;64852;48.092;-1.640;2024-02-21T03:38:11;10.60;99.90
76120;DHT22;64852;48.092;-1.640;2024-02-21T03:40:37;10.60;99.90
76120;DHT22;64852;48.092;-1.640;2024-02-21T03:43:02;10.60;99.90
76120;DHT22;64852;48.092;-1.640;2024-02-21T03:45:28;10.60;99.90
76120;DHT22;64852;48.092;-1.640;2024-02-21T03:47:54;10.60;99.90
76120;DHT22;64852;48.092;-1.640;2024-02-21T03:50:20;10.70;99.90
76120;DHT22;64852;48.092;-1.640;2024-02-21T03:52:46;11.20;99.90
76120;DHT22;64852;48.092;-1.640;2024-02-21T03:55:11;10.80;99.90
76120;DHT22;64852;48.092;-1.640;2024-02-21T03:57:37;10.90;99.90
76120;DHT22;64852;48.092;-1.640;2024-02-21T04:00:04;10.60;99.90
76120;DHT22;64852;48.092;-1.640;2024-02-21T04:02:30;10.60;99.90
76120;DHT22;64852;48.092;-1.640;2024-02-21T04:04:56;10.80;99.90
76120;DHT22;64852;48.092;-1.640;2024-02-21T04:07:21;10.60;99.90
76120;DHT22;64852;48.092;-1.640;2024-02-21T04:09:47;10.60;99.90
76120;DHT22;64852;48.092;-1.640;2024-02-21T04:12:12;10.60;99.90
76120;DHT22;64852;48.092;-1.640;2024-02-21T04:14:38;10.80;99.90
76120;DHT22;64852;48.092;-1.640;2024-02-21T04:17:04;10.50;99.90
76120;DHT22;64852;48.092;-1.640;2024-02-21T04:19:30;10.60;99.90
76120;DHT22;64852;48.092;-1.640;2024-02-21T04:21:56;11.60;99.90
76120;DHT22;64852;48.092;-1.640;2024-02-21T04:24:21;10.60;99.90
76120;DHT22;64852;48.092;-1.640;2024-02-21T04:26:47;10.70;99.90
76120;DHT22;64852;48.092;-1.640;2024-02-21T04:29:12;11.60;99.90
76120;DHT22;64852;48.092;-1.640;2024-02-21T04:31:38;10.70;99.90
76120;DHT22;64852;48.092;-1.640;2024-02-21T04:34:05;10.70;99.90
76120;DHT22;64852;48.092;-1.640;2024-02-21T04:36:31;10.80;99.90
76120;DHT22;64852;48.092;-1.640;2024-02-21T04:38:57;11.70;99.90
76120;DHT22;64852;48.092;-1.640;2024-02-21T04:41:22;10.70;99.90
76120;DHT22;64852;48.092;-1.640;2024-02-21T04:43:47;11.70;99.90
76120;DHT22;64852;48.092;-1.640;2024-02-21T04:46:13;11.30;99.90
76120;DHT22;64852;48.092;-1.640;2024-02-21T04:48:39;10.60;99.90
76120;DHT22;64852;48.092;-1.640;2024-02-21T04:51:04;10.80;99.90
76120;DHT22;64852;48.092;-1.640;2024-02-21T04:53:30;11.10;99.90
76120;DHT22;64852;48.092;-1.640;2024-02-21T04:55:55;10.70;99.90
76120;DHT22;64852;48.092;-1.640;2024-02-21T04:58:21;10.80;99.90
76120;DHT22;64852;48.092;-1.640;2024-02-21T05:00:46;10.70;99.90
76120;DHT22;64852;48.092;-1.640;2024-02-21T05:03:12;10.70;99.90
76120;DHT22;64852;48.092;-1.640;2024-02-21T05:05:37;10.60;99.90
76120;DHT22;64852;48.092;-1.640;2024-02-21T05:08:03;10.70;99.90
76120;DHT22;64852;48.092;-1.640;2024-02-21T05:10:28;10.60;99.90
76120;DHT22;64852;48.092;-1.640;2024-02-21T05:12:54;10.70;99.90
76120;DHT22;64852;48.092;-1.640;2024-02-21T05:15:19;11.60;99.90
76120;DHT22;64852;48.092;-1.640;2024-02-21T05:17:45;10.70;99.90
76120;DHT22;64852;48.092;-1.640;2024-02-21T05:20:10;10.70;99.90
76120;DHT22;64852;48.092;-1.640;2024-02-21T05:22:36;10.80;99.90
76120;DHT22;64852;48.092;-1.640;2024-02-21T05:25:01;10.70;99.90
76120;DHT22;64852;48.092;-1.640;2024-02-21T05:27:27;11.80;99.90
76120;DHT22;64852;48.092;-1.640;2024-02-21T05:29:53;10.70;99.90
76120;DHT22;64852;48.092;-1.640;2024-02-21T05:32:18;10.70;99.90
76120;DHT22;64852;48.092;-1.640;2024-02-21T05:34:44;11.40;99.90
76120;DHT22;64852;48.092;-1.640;2024-02-21T05:37:09;11.30;99.90
76120;DHT22;64852;48.092;-1.640;2024-02-21T05:39:35;10.90;99.90
76120;DHT22;64852;48.092;-1.640;2024-02-21T05:42:00;10.80;99.90
76120;DHT22;64852;48.092;-1.640;2024-02-21T05:44:26;10.80;99.90
76120;DHT22;64852;48.092;-1.640;2024-02-21T05:46:52;10.80;99.90
76120;DHT22;64852;48.092;-1.640;2024-02-21T05:49:17;10.90;99.90
76120;DHT22;64852;48.092;-1.640;2024-02-21T05:51:43;10.80;99.90
76120;DHT22;64852;48.092;-1.640;2024-02-21T05:54:08;10.80;99.90
76120;DHT22;64852;48.092;-1.640;2024-02-21T05:56:34;10.80;99.90
76120;DHT22;64852;48.092;-1.640;2024-02-21T05:58:59;10.80;99.90
76120;DHT22;64852;48.092;-1.640;2024-02-21T06:01:25;10.80;99.90
76120;DHT22;64852;48.092;-1.640;2024-02-21T06:03:50;10.90;99.90
76120;DHT22;64852;48.092;-1.640;2024-02-21T06:06:16;11.30;99.90
76120;DHT22;64852;48.092;-1.640;2024-02-21T06:08:42;10.80;99.90
76120;DHT22;64852;48.092;-1.640;2024-02-21T06:11:07;10.70;99.90
76120;DHT22;64852;48.092;-1.640;2024-02-21T06:13:33;10.70;99.90
76120;DHT22;64852;48.092;-1.640;2024-02-21T06:15:58;10.70;99.90
76120;DHT22;64852;48.092;-1.640;2024-02-21T06:18:24;10.90;99.90
76120;DHT22;64852;48.092;-1.640;2024-02-21T06:20:49;10.70;99.90
76120;DHT22;64852;48.092;-1.640;2024-02-21T06:23:15;10.80;99.90
76120;DHT22;64852;48.092;-1.640;2024-02-21T06:25:41;11.40;99.90
76120;DHT22;64852;48.092;-1.640;2024-02-21T06:28:07;10.70;99.90
76120;DHT22;64852;48.092;-1.640;2024-02-21T06:30:32;10.70;99.90
76120;DHT22;64852;48.092;-1.640;2024-02-21T06:32:58;11.10;99.90
76120;DHT22;64852;48.092;-1.640;2024-02-21T06:35:24;10.70;99.90
76120;DHT22;64852;48.092;-1.640;2024-02-21T06:37:50;10.80;99.90
76120;DHT22;64852;48.092;-1.640;2024-02-21T06:40:17;10.80;99.90
76120;DHT22;64852;48.092;-1.640;2024-02-21T06:42:42;10.80;99.90
76120;DHT22;64852;48.092;-1.640;2024-02-21T06:45:08;10.80;99.90
76120;DHT22;64852;48.092;-1.640;2024-02-21T06:47:33;10.80;99.90
76120;DHT22;64852;48.092;-1.640;2024-02-21T06:49:59;10.80;99.90
76120;DHT22;64852;48.092;-1.640;2024-02-21T06:52:24;11.50;99.90
76120;DHT22;64852;48.092;-1.640;2024-02-21T06:54:50;10.80;99.90
76120;DHT22;64852;48.092;-1.640;2024-02-21T06:57:16;10.90;99.90
76120;DHT22;64852;48.092;-1.640;2024-02-21T06:59:41;11.00;99.90
76120;DHT22;64852;48.092;-1.640;2024-02-21T07:02:07;10.90;99.90
76120;DHT22;64852;48.092;-1.640;2024-02-21T07:04:33;11.30;99.90
76120;DHT22;64852;48.092;-1.640;2024-02-21T07:06:58;11.10;99.90
76120;DHT22;64852;48.092;-1.640;2024-02-21T07:09:24;10.80;99.90
76120;DHT22;64852;48.092;-1.640;2024-02-21T07:11:50;10.90;99.90
76120;DHT22;64852;48.092;-1.640;2024-02-21T07:14:15;10.90;99.90
76120;DHT22;64852;48.092;-1.640;2024-02-21T07:16:41;10.80;99.90
76120;DHT22;64852;48.092;-1.640;2024-02-21T07:19:06;10.90;99.90
76120;DHT22;64852;48.092;-1.640;2024-02-21T07:21:32;10.90;99.90
76120;DHT22;64852;48.092;-1.640;2024-02-21T07:23:57;10.80;99.90
76120;DHT22;64852;48.092;-1.640;2024-02-21T07:26:23;10.90;99.90
76120;DHT22;64852;48.092;-1.640;2024-02-21T07:28:48;10.90;99.90
76120;DHT22;64852;48.092;-1.640;2024-02-21T07:31:14;10.80;99.90
76120;DHT22;64852;48.092;-1.640;2024-02-21T07:33:39;11.00;99.90
76120;DHT22;64852;48.092;-1.640;2024-02-21T07:36:06;10.90;99.90
76120;DHT22;64852;48.092;-1.640;2024-02-21T07:38:31;11.00;99.90
76120;DHT22;64852;48.092;-1.640;2024-02-21T07:40:57;10.90;99.90
76120;DHT22;64852;48.092;-1.640;2024-02-21T07:43:22;10.90;99.90
76120;DHT22;64852;48.092;-1.640;2024-02-21T07:45:48;11.20;99.90
76120;DHT22;64852;48.092;-1.640;2024-02-21T07:48:13;11.00;99.90
76120;DHT22;64852;48.092;-1.640;2024-02-21T07:50:39;10.90;99.90
76120;DHT22;64852;48.092;-1.640;2024-02-21T07:53:04;11.00;99.90
76120;DHT22;64852;48.092;-1.640;2024-02-21T07:55:30;10.90;99.90
76120;DHT22;64852;48.092;-1.640;2024-02-21T07:57:55;10.90;99.90
76120;DHT22;64852;48.092;-1.640;2024-02-21T08:00:21;11.00;99.90
76120;DHT22;64852;48.092;-1.640;2024-02-21T08:02:47;11.00;99.90
76120;DHT22;64852;48.092;-1.640;2024-02-21T08:05:13;11.00;99.90
76120;DHT22;64852;48.092;-1.640;2024-02-21T08:07:38;10.90;99.90
76120;DHT22;64852;48.092;-1.640;2024-02-21T08:10:04;11.00;99.90
76120;DHT22;64852;48.092;-1.640;2024-02-21T08:12:33;11.00;99.90
76120;DHT22;64852;48.092;-1.640;2024-02-21T08:14:58;10.30;99.90
76120;DHT22;64852;48.092;-1.640;2024-02-21T08:17:24;11.00;99.90
76120;DHT22;64852;48.092;-1.640;2024-02-21T08:19:49;11.10;99.90
76120;DHT22;64852;48.092;-1.640;2024-02-21T08:22:15;11.00;99.90
76120;DHT22;64852;48.092;-1.640;2024-02-21T08:24:41;11.00;99.90
76120;DHT22;64852;48.092;-1.640;2024-02-21T08:27:07;11.00;99.90
76120;DHT22;64852;48.092;-1.640;2024-02-21T08:29:32;10.90;99.90
76120;DHT22;64852;48.092;-1.640;2024-02-21T08:31:58;11.00;99.90
76120;DHT22;64852;48.092;-1.640;2024-02-21T08:34:23;11.10;99.90
76120;DHT22;64852;48.092;-1.640;2024-02-21T08:36:49;11.10;99.90
76120;DHT22;64852;48.092;-1.640;2024-02-21T08:39:15;11.00;99.90
76120;DHT22;64852;48.092;-1.640;2024-02-21T08:41:43;11.10;99.90
76120;DHT22;64852;48.092;-1.640;2024-02-21T08:44:09;11.10;99.90
76120;DHT22;64852;48.092;-1.640;2024-02-21T08:46:34;11.50;99.90
76120;DHT22;64852;48.092;-1.640;2024-02-21T08:49:03;11.00;99.90
76120;DHT22;64852;48.092;-1.640;2024-02-21T08:51:28;11.10;99.90
76120;DHT22;64852;48.092;-1.640;2024-02-21T08:53:54;11.30;99.90
76120;DHT22;64852;48.092;-1.640;2024-02-21T08:56:20;11.20;99.90
76120;DHT22;64852;48.092;-1.640;2024-02-21T08:58:46;11.30;99.90
76120;DHT22;64852;48.092;-1.640;2024-02-21T09:01:12;11.20;99.90
76120;DHT22;64852;48.092;-1.640;2024-02-21T09:03:37;11.40;99.90
76120;DHT22;64852;48.092;-1.640;2024-02-21T09:06:06;11.30;99.90
76120;DHT22;64852;48.092;-1.640;2024-02-21T09:08:32;11.30;99.90
76120;DHT22;64852;48.092;-1.640;2024-02-21T09:10:59;11.40;99.90
76120;DHT22;64852;48.092;-1.640;2024-02-21T09:13:24;11.40;99.90
76120;DHT22;64852;48.092;-1.640;2024-02-21T09:15:50;11.40;99.90
76120;DHT22;64852;48.092;-1.640;2024-02-21T09:18:16;11.40;99.90
76120;DHT22;64852;48.092;-1.640;2024-02-21T09:20:42;11.30;99.90
76120;DHT22;64852;48.092;-1.640;2024-02-21T09:23:07;11.50;99.90
76120;DHT22;64852;48.092;-1.640;2024-02-21T09:25:33;11.50;99.90
76120;DHT22;64852;48.092;-1.640;2024-02-21T09:27:59;11.40;99.90
76120;DHT22;64852;48.092;-1.640;2024-02-21T09:30:25;11.50;99.90
76120;DHT22;64852;48.092;-1.640;2024-02-21T09:32:50;11.50;99.90
76120;DHT22;64852;48.092;-1.640;2024-02-21T09:35:16;11.40;99.90
76120;DHT22;64852;48.092;-1.640;2024-02-21T09:37:41;11.60;99.90
76120;DHT22;64852;48.092;-1.640;2024-02-21T09:40:07;11.60;99.90
76120;DHT22;64852;48.092;-1.640;2024-02-21T09:42:39;11.60;99.90
76120;DHT22;64852;48.092;-1.640;2024-02-21T09:45:08;11.50;99.90
76120;DHT22;64852;48.092;-1.640;2024-02-21T09:47:34;11.60;99.90
76120;DHT22;64852;48.092;-1.640;2024-02-21T09:50:05;11.60;99.90
76120;DHT22;64852;48.092;-1.640;2024-02-21T09:52:30;11.50;99.90
76120;DHT22;64852;48.092;-1.640;2024-02-21T09:54:58;11.60;99.90
76120;DHT22;64852;48.092;-1.640;2024-02-21T09:57:24;11.50;99.90
76120;DHT22;64852;48.092;-1.640;2024-02-21T09:59:51;11.60;99.90
76120;DHT22;64852;48.092;-1.640;2024-02-21T10:02:16;11.60;99.90
76120;DHT22;64852;48.092;-1.640;2024-02-21T10:04:42;11.70;99.90
76120;DHT22;64852;48.092;-1.640;2024-02-21T10:07:08;11.70;99.90
76120;DHT22;64852;48.092;-1.640;2024-02-21T10:09:34;11.10;99.90
76120;DHT22;64852;48.092;-1.640;2024-02-21T10:12:09;11.70;99.90
76120;DHT22;64852;48.092;-1.640;2024-02-21T10:14:35;11.90;99.90
76120;DHT22;64852;48.092;-1.640;2024-02-21T10:17:01;11.40;99.90
76120;DHT22;64852;48.092;-1.640;2024-02-21T10:19:28;11.70;99.90
76120;DHT22;64852;48.092;-1.640;2024-02-21T10:22:00;11.70;99.90
76120;DHT22;64852;48.092;-1.640;2024-02-21T10:24:26;11.70;99.90
76120;DHT22;64852;48.092;-1.640;2024-02-21T10:26:58;11.70;99.90
76120;DHT22;64852;48.092;-1.640;2024-02-21T10:29:24;11.70;99.90
76120;DHT22;64852;48.092;-1.640;2024-02-21T10:31:49;11.80;99.90
76120;DHT22;64852;48.092;-1.640;2024-02-21T10:34:16;11.80;99.90
76120;DHT22;64852;48.092;-1.640;2024-02-21T10:36:42;11.90;99.90
76120;DHT22;64852;48.092;-1.640;2024-02-21T10:39:07;11.90;99.90
76120;DHT22;64852;48.092;-1.640;2024-02-21T10:41:34;11.90;99.90
76120;DHT22;64852;48.092;-1.640;2024-02-21T10:44:01;11.90;99.90
76120;DHT22;64852;48.092;-1.640;2024-02-21T10:46:30;11.90;99.90
76120;DHT22;64852;48.092;-1.640;2024-02-21T10:49:06;11.90;99.90
76120;DHT22;64852;48.092;-1.640;2024-02-21T10:51:35;11.80;99.90
76120;DHT22;64852;48.092;-1.640;2024-02-21T10:54:05;12.20;99.90
76120;DHT22;64852;48.092;-1.640;2024-02-21T10:56:37;12.00;99.90
76120;DHT22;64852;48.092;-1.640;2024-02-21T10:59:04;11.90;99.90
76120;DHT22;64852;48.092;-1.640;2024-02-21T11:01:30;12.00;99.90
76120;DHT22;64852;48.092;-1.640;2024-02-21T11:04:06;12.00;99.90
76120;DHT22;64852;48.092;-1.640;2024-02-21T11:06:32;12.00;99.90
76120;DHT22;64852;48.092;-1.640;2024-02-21T11:09:03;12.00;99.90
76120;DHT22;64852;48.092;-1.640;2024-02-21T11:11:29;12.00;99.90
76120;DHT22;64852;48.092;-1.640;2024-02-21T11:14:08;12.20;99.90
76120;DHT22;64852;48.092;-1.640;2024-02-21T11:16:37;11.90;99.90
76120;DHT22;64852;48.092;-1.640;2024-02-21T11:19:25;12.10;99.90
76120;DHT22;64852;48.092;-1.640;2024-02-21T11:21:50;12.20;99.90
76120;DHT22;64852;48.092;-1.640;2024-02-21T11:24:28;12.10;99.90
76120;DHT22;64852;48.092;-1.640;2024-02-21T11:26:54;12.00;99.90
76120;DHT22;64852;48.092;-1.640;2024-02-21T11:29:23;12.30;99.90
76120;DHT22;64852;48.092;-1.640;2024-02-21T11:31:50;12.00;99.90
76120;DHT22;64852;48.092;-1.640;2024-02-21T11:34:19;12.10;99.90
76120;DHT22;64852;48.092;-1.640;2024-02-21T11:36:48;12.20;99.90
76120;DHT22;64852;48.092;-1.640;2024-02-21T11:39:18;12.10;99.90
76120;DHT22;64852;48.092;-1.640;2024-02-21T11:41:46;12.00;99.90
76120;DHT22;64852;48.092;-1.640;2024-02-21T11:44:12;12.10;99.90
76120;DHT22;64852;48.092;-1.640;2024-02-21T11:46:37;12.10;99.90
76120;DHT22;64852;48.092;-1.640;2024-02-21T11:49:03;12.10;99.90
76120;DHT22;64852;48.092;-1.640;2024-02-21T11:51:28;12.20;99.90
76120;DHT22;64852;48.092;-1.640;2024-02-21T11:53:54;12.10;99.90
76120;DHT22;64852;48.092;-1.640;2024-02-21T11:56:20;12.10;99.90
76120;DHT22;64852;48.092;-1.640;2024-02-21T11:58:46;12.10;99.90
76120;DHT22;64852;48.092;-1.640;2024-02-21T12:01:12;12.20;99.90
76120;DHT22;64852;48.092;-1.640;2024-02-21T12:03:38;12.20;99.90
76120;DHT22;64852;48.092;-1.640;2024-02-21T12:06:06;12.20;99.90
76120;DHT22;64852;48.092;-1.640;2024-02-21T12:08:44;12.20;99.90
76120;DHT22;64852;48.092;-1.640;2024-02-21T12:11:17;12.10;99.90
76120;DHT22;64852;48.092;-1.640;2024-02-21T12:13:43;12.00;99.90
76120;DHT22;64852;48.092;-1.640;2024-02-21T12:16:09;12.10;99.90
76120;DHT22;64852;48.092;-1.640;2024-02-21T12:18:34;12.00;99.90
76120;DHT22;64852;48.092;-1.640;2024-02-21T12:21:00;12.10;99.90
76120;DHT22;64852;48.092;-1.640;2024-02-21T12:23:27;12.10;99.90
76120;DHT22;64852;48.092;-1.640;2024-02-21T12:25:52;12.00;99.90
76120;DHT22;64852;48.092;-1.640;2024-02-21T12:28:19;12.00;99.90
76120;DHT22;64852;48.092;-1.640;2024-02-21T12:30:45;12.10;99.90
76120;DHT22;64852;48.092;-1.640;2024-02-21T12:33:10;11.90;99.90
76120;DHT22;64852;48.092;-1.640;2024-02-21T12:35:36;11.90;99.90
76120;DHT22;64852;48.092;-1.640;2024-02-21T12:38:01;11.80;99.90
76120;DHT22;64852;48.092;-1.640;2024-02-21T12:40:27;11.70;99.90
76120;DHT22;64852;48.092;-1.640;2024-02-21T12:43:00;11.80;99.90
76120;DHT22;64852;48.092;-1.640;2024-02-21T12:45:28;11.80;99.90
76120;DHT22;64852;48.092;-1.640;2024-02-21T12:47:54;11.80;99.90
76120;DHT22;64852;48.092;-1.640;2024-02-21T12:50:19;11.70;99.90
76120;DHT22;64852;48.092;-1.640;2024-02-21T12:52:45;11.80;99.90
76120;DHT22;64852;48.092;-1.640;2024-02-21T12:55:11;11.80;99.90
76120;DHT22;64852;48.092;-1.640;2024-02-21T12:57:38;11.90;99.90
76120;DHT22;64852;48.092;-1.640;2024-02-21T13:00:05;11.80;99.90
76120;DHT22;64852;48.092;-1.640;2024-02-21T13:02:33;11.80;99.90
76120;DHT22;64852;48.092;-1.640;2024-02-21T13:04:59;11.80;99.90
76120;DHT22;64852;48.092;-1.640;2024-02-21T13:07:25;11.80;99.90
76120;DHT22;64852;48.092;-1.640;2024-02-21T13:09:52;11.80;99.90
76120;DHT22;64852;48.092;-1.640;2024-02-21T13:12:19;11.70;99.90
76120;DHT22;64852;48.092;-1.640;2024-02-21T13:14:44;11.70;99.90
76120;DHT22;64852;48.092;-1.640;2024-02-21T13:17:10;11.70;99.90
76120;DHT22;64852;48.092;-1.640;2024-02-21T13:19:35;11.70;99.90
76120;DHT22;64852;48.092;-1.640;2024-02-21T13:22:01;11.60;99.90
76120;DHT22;64852;48.092;-1.640;2024-02-21T13:24:27;11.60;99.90
76120;DHT22;64852;48.092;-1.640;2024-02-21T13:26:53;12.00;99.90
76120;DHT22;64852;48.092;-1.640;2024-02-21T13:29:18;11.70;99.90
76120;DHT22;64852;48.092;-1.640;2024-02-21T13:31:45;10.90;99.90
76120;DHT22;64852;48.092;-1.640;2024-02-21T13:34:11;11.90;99.90
76120;DHT22;64852;48.092;-1.640;2024-02-21T13:36:36;11.80;99.90
76120;DHT22;64852;48.092;-1.640;2024-02-21T13:39:02;11.80;99.90
76120;DHT22;64852;48.092;-1.640;2024-02-21T13:41:30;11.70;99.90
76120;DHT22;64852;48.092;-1.640;2024-02-21T13:43:56;11.70;99.90
76120;DHT22;64852;48.092;-1.640;2024-02-21T13:46:21;11.80;99.90
76120;DHT22;64852;48.092;-1.640;2024-02-21T13:48:47;11.80;99.90
76120;DHT22;64852;48.092;-1.640;2024-02-21T13:51:13;11.80;99.90
76120;DHT22;64852;48.092;-1.640;2024-02-21T13:53:38;11.80;99.90
76120;DHT22;64852;48.092;-1.640;2024-02-21T13:56:04;11.70;99.90
76120;DHT22;64852;48.092;-1.640;2024-02-21T13:58:29;11.80;99.90
76120;DHT22;64852;48.092;-1.640;2024-02-21T14:00:55;11.70;99.90
76120;DHT22;64852;48.092;-1.640;2024-02-21T14:03:21;11.80;99.90
76120;DHT22;64852;48.092;-1.640;2024-02-21T14:05:47;11.90;99.90
76120;DHT22;64852;48.092;-1.640;2024-02-21T14:08:14;11.90;99.90
76120;DHT22;64852;48.092;-1.640;2024-02-21T14:10:40;11.90;99.90
76120;DHT22;64852;48.092;-1.640;2024-02-21T14:13:05;11.90;99.90
76120;DHT22;64852;48.092;-1.640;2024-02-21T14:15:31;11.90;99.90
76120;DHT22;64852;48.092;-1.640;2024-02-21T14:17:56;11.90;99.90
76120;DHT22;64852;48.092;-1.640;2024-02-21T14:20:22;11.90;99.90
76120;DHT22;64852;48.092;-1.640;2024-02-21T14:22:47;12.10;99.90
76120;DHT22;64852;48.092;-1.640;2024-02-21T14:25:13;11.90;99.90
76120;DHT22;64852;48.092;-1.640;2024-02-21T14:27:40;12.00;99.90
76120;DHT22;64852;48.092;-1.640;2024-02-21T14:30:06;12.00;99.90
76120;DHT22;64852;48.092;-1.640;2024-02-21T14:32:33;11.90;99.90
76120;DHT22;64852;48.092;-1.640;2024-02-21T14:34:59;12.00;99.90
76120;DHT22;64852;48.092;-1.640;2024-02-21T14:37:24;12.10;99.90
76120;DHT22;64852;48.092;-1.640;2024-02-21T14:39:50;12.00;99.90
76120;DHT22;64852;48.092;-1.640;2024-02-21T14:42:15;12.10;99.90
76120;DHT22;64852;48.092;-1.640;2024-02-21T14:44:41;12.20;99.90
76120;DHT22;64852;48.092;-1.640;2024-02-21T14:47:06;12.10;99.90
76120;DHT22;64852;48.092;-1.640;2024-02-21T14:49:32;12.10;99.90
76120;DHT22;64852;48.092;-1.640;2024-02-21T14:51:57;12.20;99.90
76120;DHT22;64852;48.092;-1.640;2024-02-21T14:54:23;12.20;99.90
76120;DHT22;64852;48.092;-1.640;2024-02-21T14:56:49;12.20;99.90
76120;DHT22;64852;48.092;-1.640;2024-02-21T14:59:15;12.20;99.90
76120;DHT22;64852;48.092;-1.640;2024-02-21T15:01:41;12.40;99.90
76120;DHT22;64852;48.092;-1.640;2024-02-21T15:04:07;12.40;99.90
76120;DHT22;64852;48.092;-1.640;2024-02-21T15:06:33;12.40;99.90
76120;DHT22;64852;48.092;-1.640;2024-02-21T15:09:01;12.40;99.90
76120;DHT22;64852;48.092;-1.640;2024-02-21T15:11:28;12.30;99.90